Bookmark and Share
Track history (hours):
 

Maersk Peary

More information available from US FCC via Universal Licensing System and Coast Guard Vessel Documentation Center.

Last reported at 2014-Mar-09 18:00 UTC. Time now 2014-Apr-24 22:03 UTC.
Position N 33°42' E 128°36'.
Warning: this ship's position is 46 days out of date.

Length 180 m; draft 7.2 m.

Type: Tanker. MMSI: 368236000.

Wind from 330 at 19 knots

Waves 2.0 meters (7 feet), 6 second period

Barometer 1022.0 mb
Air temperature 7.0 ° C
Visibility: greater than 5.4 NM
Dewpoint -0.0 ° C

NotesDate/timePositionNaut miles runAvg speedWind from/ knotsBaromVisibWave heightAir tempDewpointWater temp
2014-Mar-09 18:00N 33°42' E 128°36'7512.5 330 / 191022.0 5.4 2.0 7.0-0.0
2014-Mar-09 12:00N 32°30' E 128°12'20411.3 320 / 301020.010.8 1.510.0 3.7
2014-Mar-08 18:00N 31°42' E 132°06'7812.9 330 / 161017.5 2.2 9.0 7.0
2014-Mar-08 12:00N 32°30' E 133°18'33513.1 210 / 91020.010.8 0.510.0 3.7
2014-Mar-07 10:27N 34°56' E 139°20'1314.6
2014-Mar-07 09:33N 35°01' E 139°35'1413.9
2014-Mar-07 08:33N 35°12' E 139°46'9 8.6
2014-Mar-07 07:33N 35°19' E 139°40'1 0.0
2014-Mar-06 07:17N 35°18' E 139°39'2 2.4
2014-Mar-06 06:33N 35°19' E 139°41'0 0.3
2014-Mar-06 05:33N 35°19' E 139°41'0 0.0
2014-Mar-06 04:33N 35°19' E 139°41'0 0.0
2014-Mar-06 03:33N 35°19' E 139°41'0 0.0
2014-Mar-06 02:33N 35°19' E 139°41'0 0.0
2014-Mar-06 01:33N 35°19' E 139°41'0 0.0
2014-Mar-06 00:33N 35°19' E 139°41'0 0.0
2014-Mar-05 23:33N 35°19' E 139°41'0 0.0
2014-Mar-05 22:32N 35°19' E 139°41'0 0.0
2014-Mar-05 21:32N 35°19' E 139°41'0 0.0
2014-Mar-05 20:32N 35°19' E 139°41'0 0.0
2014-Mar-05 18:32N 35°19' E 139°41'0 0.0
2014-Mar-05 17:32N 35°19' E 139°41'0 0.0
2014-Mar-05 16:29N 35°19' E 139°41'0 0.0
2014-Mar-05 15:32N 35°19' E 139°41'0 0.0
2014-Mar-05 14:29N 35°19' E 139°41'0 0.0
2014-Mar-05 13:32N 35°19' E 139°41'0 0.0
2014-Mar-05 12:32N 35°19' E 139°41'0 0.0
2014-Mar-05 11:32N 35°19' E 139°41'0 0.1
2014-Mar-05 10:33N 35°19' E 139°41'0 0.0
2014-Mar-05 09:32N 35°19' E 139°41'0 0.1
2014-Mar-05 08:32N 35°19' E 139°41'0 0.0
2014-Mar-05 07:32N 35°19' E 139°41'0 0.0
2014-Mar-05 06:32N 35°19' E 139°41'0 0.0
2014-Mar-05 05:31N 35°19' E 139°41'0 0.0
2014-Mar-05 04:31N 35°19' E 139°41'0 0.0
2014-Mar-05 03:31N 35°19' E 139°41'0 0.0
2014-Mar-05 02:31N 35°19' E 139°41'0 0.0
2014-Mar-05 01:31N 35°19' E 139°41'0 0.0
2014-Mar-05 00:32N 35°19' E 139°41'3 3.1
2014-Mar-04 23:33N 35°18' E 139°45'8 8.4
2014-Mar-04 22:33N 35°10' E 139°46'8 8.2
2014-Mar-04 21:33N 35°03' E 139°41'9 9.4
2014-Mar-04 20:33N 34°58' E 139°31'10 9.4
2014-Mar-04 19:32N 34°53' E 139°21'26813.7
2014-Mar-04 00:00N 32°48' E 134°36'17114.3 050 / 181023.010.8 1.512.0 8.3
2014-Mar-03 12:00N 31°06' E 131°54'23813.2 040 / 131023.010.8 1.514.0 8.5
2014-Mar-02 18:00N 27°30' E 130°00'8914.8 010 / 161014.0 5.4 1.518.013.0
2014-Mar-02 12:00N 26°42' E 128°36'   030 / 191014.010.8 1.018.016.4
2014-Feb-27 18:00N 30°42' E 127°48'   270 / 101020.0 5.4 14.0 8.5

Dump ship's entire track history

sailing weather and tide predictions

Maersk Peary — WHKM — position and weather